« Back
NWS Peachtree City, Ga » Text Product » ATL Terminal Aerodrome Forecast


Printer-friendly Version
Current Version              Previous Versions:   1  2  3  4  5  6  7  8  9  

Terminal Aerodrome Forecast

314
FTUS42 KFFC 020936 AAB
TAFATL
TAF AMD
KATL 020936Z 0210/0312 24005KT P6SM BKN150
     FM021100 26005KT P6SM SCT012 BKN050
     FM021400 27008KT P6SM BKN050
     FM021600 25008KT P6SM VCSH BKN050
      TEMPO 0218/0222 VRB15G25KT 6SM TSRA BKN035CB
     FM030000 24007KT P6SM BKN100
     FM030900 23006KT P6SM OVC015=



USA.gov is the U.S. government's official web portal to all federal, state and local government web resources and services.